sensor_id;sensor_type;location;lat;lon;timestamp;P1;durP1;ratioP1;P2;durP2;ratioP2
63089;SDS011;49174;43.198;27.824;2022-12-10T00:01:47;38.65;;;19.48;;
63089;SDS011;49174;43.198;27.824;2022-12-10T00:04:14;34.80;;;18.55;;
63089;SDS011;49174;43.198;27.824;2022-12-10T00:06:40;29.90;;;17.48;;
63089;SDS011;49174;43.198;27.824;2022-12-10T00:09:07;31.85;;;17.42;;
63089;SDS011;49174;43.198;27.824;2022-12-10T00:11:37;31.02;;;18.17;;
63089;SDS011;49174;43.198;27.824;2022-12-10T00:14:03;32.92;;;18.45;;
63089;SDS011;49174;43.198;27.824;2022-12-10T00:16:32;36.13;;;17.67;;
63089;SDS011;49174;43.198;27.824;2022-12-10T00:18:58;32.17;;;19.42;;
63089;SDS011;49174;43.198;27.824;2022-12-10T00:21:28;33.80;;;17.92;;
63089;SDS011;49174;43.198;27.824;2022-12-10T00:23:55;37.03;;;19.63;;
63089;SDS011;49174;43.198;27.824;2022-12-10T00:26:23;32.42;;;17.92;;
63089;SDS011;49174;43.198;27.824;2022-12-10T00:28:51;30.52;;;18.05;;
63089;SDS011;49174;43.198;27.824;2022-12-10T00:31:21;35.92;;;19.50;;
63089;SDS011;49174;43.198;27.824;2022-12-10T00:33:49;28.88;;;16.60;;
63089;SDS011;49174;43.198;27.824;2022-12-10T00:36:19;35.50;;;19.45;;
63089;SDS011;49174;43.198;27.824;2022-12-10T00:38:46;28.88;;;18.02;;
63089;SDS011;49174;43.198;27.824;2022-12-10T00:41:13;32.95;;;18.35;;
63089;SDS011;49174;43.198;27.824;2022-12-10T00:43:40;36.40;;;18.50;;
63089;SDS011;49174;43.198;27.824;2022-12-10T00:46:06;40.63;;;19.38;;
63089;SDS011;49174;43.198;27.824;2022-12-10T00:48:32;41.97;;;19.00;;
63089;SDS011;49174;43.198;27.824;2022-12-10T00:53:25;32.47;;;17.95;;
63089;SDS011;49174;43.198;27.824;2022-12-10T00:55:53;33.92;;;17.52;;
63089;SDS011;49174;43.198;27.824;2022-12-10T00:58:19;33.42;;;18.35;;
63089;SDS011;49174;43.198;27.824;2022-12-10T01:00:44;36.30;;;20.30;;
63089;SDS011;49174;43.198;27.824;2022-12-10T01:03:10;31.17;;;18.42;;
63089;SDS011;49174;43.198;27.824;2022-12-10T01:05:36;30.25;;;18.20;;
63089;SDS011;49174;43.198;27.824;2022-12-10T01:08:01;36.08;;;18.35;;
63089;SDS011;49174;43.198;27.824;2022-12-10T01:10:27;34.10;;;17.75;;
63089;SDS011;49174;43.198;27.824;2022-12-10T01:12:53;34.00;;;19.05;;
63089;SDS011;49174;43.198;27.824;2022-12-10T01:15:18;32.08;;;18.58;;
63089;SDS011;49174;43.198;27.824;2022-12-10T01:17:44;35.58;;;18.40;;
63089;SDS011;49174;43.198;27.824;2022-12-10T01:20:09;40.53;;;19.08;;
63089;SDS011;49174;43.198;27.824;2022-12-10T01:22:35;40.20;;;19.42;;
63089;SDS011;49174;43.198;27.824;2022-12-10T01:25:01;31.75;;;18.77;;
63089;SDS011;49174;43.198;27.824;2022-12-10T01:27:26;38.22;;;18.17;;
63089;SDS011;49174;43.198;27.824;2022-12-10T01:29:52;35.88;;;20.25;;
63089;SDS011;49174;43.198;27.824;2022-12-10T01:32:17;43.55;;;18.88;;
63089;SDS011;49174;43.198;27.824;2022-12-10T01:34:43;35.22;;;18.15;;
63089;SDS011;49174;43.198;27.824;2022-12-10T01:37:08;33.58;;;18.92;;
63089;SDS011;49174;43.198;27.824;2022-12-10T01:39:34;32.70;;;19.25;;
63089;SDS011;49174;43.198;27.824;2022-12-10T01:42:00;38.22;;;17.55;;
63089;SDS011;49174;43.198;27.824;2022-12-10T01:46:54;31.80;;;16.85;;
63089;SDS011;49174;43.198;27.824;2022-12-10T01:49:26;33.10;;;18.67;;
63089;SDS011;49174;43.198;27.824;2022-12-10T01:51:57;34.65;;;17.92;;
63089;SDS011;49174;43.198;27.824;2022-12-10T01:54:24;32.33;;;17.45;;
63089;SDS011;49174;43.198;27.824;2022-12-10T01:56:52;29.17;;;17.20;;
63089;SDS011;49174;43.198;27.824;2022-12-10T01:59:23;32.80;;;18.45;;
63089;SDS011;49174;43.198;27.824;2022-12-10T02:10:33;35.80;;;22.20;;
63089;SDS011;49174;43.198;27.824;2022-12-10T02:15:46;40.80;;;23.27;;
63089;SDS011;49174;43.198;27.824;2022-12-10T02:18:20;37.72;;;22.02;;
63089;SDS011;49174;43.198;27.824;2022-12-10T02:20:52;42.35;;;21.17;;
63089;SDS011;49174;43.198;27.824;2022-12-10T02:23:24;39.45;;;20.90;;
63089;SDS011;49174;43.198;27.824;2022-12-10T02:25:56;42.15;;;20.08;;
63089;SDS011;49174;43.198;27.824;2022-12-10T02:28:45;32.20;;;18.98;;
63089;SDS011;49174;43.198;27.824;2022-12-10T02:31:11;37.13;;;19.60;;
63089;SDS011;49174;43.198;27.824;2022-12-10T02:33:43;33.17;;;18.83;;
63089;SDS011;49174;43.198;27.824;2022-12-10T02:36:13;37.00;;;19.17;;
63089;SDS011;49174;43.198;27.824;2022-12-10T02:38:40;35.03;;;18.70;;
63089;SDS011;49174;43.198;27.824;2022-12-10T02:41:10;29.50;;;17.67;;
63089;SDS011;49174;43.198;27.824;2022-12-10T02:43:42;32.63;;;17.83;;
63089;SDS011;49174;43.198;27.824;2022-12-10T02:46:11;38.47;;;19.08;;
63089;SDS011;49174;43.198;27.824;2022-12-10T02:48:38;37.80;;;18.98;;
63089;SDS011;49174;43.198;27.824;2022-12-10T02:51:05;29.10;;;17.85;;
63089;SDS011;49174;43.198;27.824;2022-12-10T02:53:31;32.92;;;18.88;;
63089;SDS011;49174;43.198;27.824;2022-12-10T03:04:17;44.47;;;21.17;;
63089;SDS011;49174;43.198;27.824;2022-12-10T03:06:51;35.05;;;20.17;;
63089;SDS011;49174;43.198;27.824;2022-12-10T03:09:27;34.08;;;20.20;;
63089;SDS011;49174;43.198;27.824;2022-12-10T03:12:01;35.00;;;17.58;;
63089;SDS011;49174;43.198;27.824;2022-12-10T03:14:32;37.45;;;18.65;;
63089;SDS011;49174;43.198;27.824;2022-12-10T03:17:00;32.72;;;16.80;;
63089;SDS011;49174;43.198;27.824;2022-12-10T03:19:36;29.70;;;16.35;;
63089;SDS011;49174;43.198;27.824;2022-12-10T03:22:05;31.65;;;16.90;;
63089;SDS011;49174;43.198;27.824;2022-12-10T03:24:34;28.80;;;17.15;;
63089;SDS011;49174;43.198;27.824;2022-12-10T03:27:00;36.03;;;21.08;;
63089;SDS011;49174;43.198;27.824;2022-12-10T03:29:29;35.03;;;19.15;;
63089;SDS011;49174;43.198;27.824;2022-12-10T03:32:00;34.13;;;18.55;;
63089;SDS011;49174;43.198;27.824;2022-12-10T03:34:27;37.75;;;20.63;;
63089;SDS011;49174;43.198;27.824;2022-12-10T03:36:53;39.50;;;21.77;;
63089;SDS011;49174;43.198;27.824;2022-12-10T03:39:19;38.70;;;20.80;;
63089;SDS011;49174;43.198;27.824;2022-12-10T03:41:45;38.67;;;18.48;;
63089;SDS011;49174;43.198;27.824;2022-12-10T03:44:11;31.05;;;17.67;;
63089;SDS011;49174;43.198;27.824;2022-12-10T03:46:37;45.30;;;23.75;;
63089;SDS011;49174;43.198;27.824;2022-12-10T03:49:02;49.72;;;29.10;;
63089;SDS011;49174;43.198;27.824;2022-12-10T03:51:29;37.80;;;23.88;;
63089;SDS011;49174;43.198;27.824;2022-12-10T03:53:54;33.97;;;19.88;;
63089;SDS011;49174;43.198;27.824;2022-12-10T03:56:20;36.03;;;18.13;;
63089;SDS011;49174;43.198;27.824;2022-12-10T03:58:47;27.10;;;17.27;;
63089;SDS011;49174;43.198;27.824;2022-12-10T04:01:13;30.95;;;17.75;;
63089;SDS011;49174;43.198;27.824;2022-12-10T04:03:40;32.58;;;19.38;;
63089;SDS011;49174;43.198;27.824;2022-12-10T04:06:08;33.85;;;20.25;;
63089;SDS011;49174;43.198;27.824;2022-12-10T04:08:39;29.17;;;18.15;;
63089;SDS011;49174;43.198;27.824;2022-12-10T04:11:05;34.55;;;16.98;;
63089;SDS011;49174;43.198;27.824;2022-12-10T04:13:35;27.55;;;15.73;;
63089;SDS011;49174;43.198;27.824;2022-12-10T04:16:21;24.50;;;14.23;;
63089;SDS011;49174;43.198;27.824;2022-12-10T04:18:57;35.90;;;17.77;;
63089;SDS011;49174;43.198;27.824;2022-12-10T04:21:25;28.95;;;14.93;;
63089;SDS011;49174;43.198;27.824;2022-12-10T04:24:10;28.10;;;16.05;;
63089;SDS011;49174;43.198;27.824;2022-12-10T04:26:55;24.70;;;14.23;;
63089;SDS011;49174;43.198;27.824;2022-12-10T04:29:23;29.70;;;15.63;;
63089;SDS011;49174;43.198;27.824;2022-12-10T04:31:51;28.55;;;16.15;;
63089;SDS011;49174;43.198;27.824;2022-12-10T04:34:17;27.55;;;14.23;;
63089;SDS011;49174;43.198;27.824;2022-12-10T04:36:43;26.70;;;15.07;;
63089;SDS011;49174;43.198;27.824;2022-12-10T04:39:09;30.55;;;15.55;;
63089;SDS011;49174;43.198;27.824;2022-12-10T04:41:38;32.17;;;14.93;;
63089;SDS011;49174;43.198;27.824;2022-12-10T04:44:04;29.65;;;13.82;;
63089;SDS011;49174;43.198;27.824;2022-12-10T04:46:30;28.85;;;16.42;;
63089;SDS011;49174;43.198;27.824;2022-12-10T04:48:56;26.35;;;16.98;;
63089;SDS011;49174;43.198;27.824;2022-12-10T04:51:21;28.20;;;15.68;;
63089;SDS011;49174;43.198;27.824;2022-12-10T04:53:47;32.20;;;15.63;;
63089;SDS011;49174;43.198;27.824;2022-12-10T04:56:15;29.52;;;15.80;;
63089;SDS011;49174;43.198;27.824;2022-12-10T04:58:41;24.17;;;15.23;;
63089;SDS011;49174;43.198;27.824;2022-12-10T05:01:07;26.60;;;16.88;;
63089;SDS011;49174;43.198;27.824;2022-12-10T05:03:34;28.67;;;15.57;;
63089;SDS011;49174;43.198;27.824;2022-12-10T05:06:01;33.97;;;19.17;;
63089;SDS011;49174;43.198;27.824;2022-12-10T05:08:35;31.75;;;19.30;;
63089;SDS011;49174;43.198;27.824;2022-12-10T05:11:06;38.83;;;18.55;;
63089;SDS011;49174;43.198;27.824;2022-12-10T05:13:35;34.60;;;18.20;;
63089;SDS011;49174;43.198;27.824;2022-12-10T05:16:02;30.17;;;16.13;;
63089;SDS011;49174;43.198;27.824;2022-12-10T05:18:29;27.40;;;14.75;;
63089;SDS011;49174;43.198;27.824;2022-12-10T05:20:58;27.42;;;16.13;;
63089;SDS011;49174;43.198;27.824;2022-12-10T05:23:24;33.33;;;16.83;;
63089;SDS011;49174;43.198;27.824;2022-12-10T05:28:32;30.55;;;17.25;;
63089;SDS011;49174;43.198;27.824;2022-12-10T05:31:00;28.42;;;16.40;;
63089;SDS011;49174;43.198;27.824;2022-12-10T05:33:26;29.83;;;17.25;;
63089;SDS011;49174;43.198;27.824;2022-12-10T05:35:59;27.50;;;16.75;;
63089;SDS011;49174;43.198;27.824;2022-12-10T05:38:27;27.70;;;15.57;;
63089;SDS011;49174;43.198;27.824;2022-12-10T05:41:03;38.40;;;20.55;;
63089;SDS011;49174;43.198;27.824;2022-12-10T05:47:09;40.65;;;21.38;;
63089;SDS011;49174;43.198;27.824;2022-12-10T06:10:48;31.77;;;15.60;;
63089;SDS011;49174;43.198;27.824;2022-12-10T06:55:35;25.40;;;16.13;;
63089;SDS011;49174;43.198;27.824;2022-12-10T08:35:37;42.88;;;22.23;;
63089;SDS011;49174;43.198;27.824;2022-12-10T10:29:06;7.32;;;4.40;;
63089;SDS011;49174;43.198;27.824;2022-12-10T11:41:57;13.73;;;3.97;;
63089;SDS011;49174;43.198;27.824;2022-12-10T11:58:22;14.32;;;4.10;;
63089;SDS011;49174;43.198;27.824;2022-12-10T12:04:20;9.35;;;3.78;;
63089;SDS011;49174;43.198;27.824;2022-12-10T12:18:04;9.73;;;4.75;;
63089;SDS011;49174;43.198;27.824;2022-12-10T12:20:32;7.72;;;3.95;;
63089;SDS011;49174;43.198;27.824;2022-12-10T12:31:54;8.85;;;4.45;;
63089;SDS011;49174;43.198;27.824;2022-12-10T12:34:27;7.95;;;3.85;;
63089;SDS011;49174;43.198;27.824;2022-12-10T12:37:03;11.23;;;4.57;;
63089;SDS011;49174;43.198;27.824;2022-12-10T12:42:50;11.20;;;3.65;;
63089;SDS011;49174;43.198;27.824;2022-12-10T12:49:10;9.75;;;3.85;;
63089;SDS011;49174;43.198;27.824;2022-12-10T12:55:09;10.73;;;3.88;;
63089;SDS011;49174;43.198;27.824;2022-12-10T13:04:45;11.48;;;4.05;;
63089;SDS011;49174;43.198;27.824;2022-12-10T13:10:53;7.25;;;3.60;;
63089;SDS011;49174;43.198;27.824;2022-12-10T13:29:25;9.82;;;4.97;;
63089;SDS011;49174;43.198;27.824;2022-12-10T14:14:28;18.38;;;6.43;;
63089;SDS011;49174;43.198;27.824;2022-12-10T14:20:26;15.77;;;7.28;;
63089;SDS011;49174;43.198;27.824;2022-12-10T14:23:26;11.82;;;5.72;;
63089;SDS011;49174;43.198;27.824;2022-12-10T14:26:10;58.50;;;28.52;;
63089;SDS011;49174;43.198;27.824;2022-12-10T14:28:43;63.40;;;33.03;;
63089;SDS011;49174;43.198;27.824;2022-12-10T14:31:16;135.65;;;66.65;;
63089;SDS011;49174;43.198;27.824;2022-12-10T14:33:44;31.38;;;17.25;;
63089;SDS011;49174;43.198;27.824;2022-12-10T14:36:33;36.58;;;16.83;;
63089;SDS011;49174;43.198;27.824;2022-12-10T14:39:09;51.72;;;23.35;;
63089;SDS011;49174;43.198;27.824;2022-12-10T14:41:40;22.58;;;11.05;;
63089;SDS011;49174;43.198;27.824;2022-12-10T14:44:08;31.85;;;12.43;;
63089;SDS011;49174;43.198;27.824;2022-12-10T16:05:26;25.58;;;13.05;;
63089;SDS011;49174;43.198;27.824;2022-12-10T17:01:56;24.13;;;13.32;;
63089;SDS011;49174;43.198;27.824;2022-12-10T17:04:22;28.80;;;14.50;;
63089;SDS011;49174;43.198;27.824;2022-12-10T17:15:11;28.17;;;13.90;;
63089;SDS011;49174;43.198;27.824;2022-12-10T23:58:19;15.43;;;5.18;;
